Time;durP1;ratioP1;P1;durP2;ratioP2;P2;SDS_P1;SDS_P2;PMS_P1;PMS_P2;Temp;Humidity;BMP_temperature;BMP_pressure;BME280_temperature;BME280_humidity;BME280_pressure;Samples;Min_cycle;Max_cycle;Signal;HPM_P1;HPM_P2
2020/12/31 00:00:46;;;;;;;11.20;10.23;;;;;;;;;;4980018;28;20203;-83
2020/12/31 00:03:12;;;;;;;10.05;8.90;;;;;;;;;;4981421;28;20165;-82
2020/12/31 00:05:39;;;;;;;8.88;8.18;;;;;;;;;;4980288;28;20169;-83
2020/12/31 00:08:05;;;;;;;10.75;8.88;;;;;;;;;;4981358;28;20197;-82
2020/12/31 00:10:31;;;;;;;8.77;7.88;;;;;;;;;;4980424;28;20215;-83
2020/12/31 00:12:58;;;;;;;9.77;8.82;;;;;;;;;;4979823;28;20181;-83
2020/12/31 00:15:25;;;;;;;11.23;9.20;;;;;;;;;;4979214;28;20177;-83
2020/12/31 00:17:51;;;;;;;12.02;9.27;;;;;;;;;;4984173;28;20659;-83
2020/12/31 00:20:17;;;;;;;14.07;10.35;;;;;;;;;;4981333;28;20200;-83
2020/12/31 00:22:43;;;;;;;9.70;8.70;;;;;;;;;;4979931;28;20197;-83
2020/12/31 00:25:11;;;;;;;10.88;9.77;;;;;;;;;;4979892;28;20173;-83
2020/12/31 00:27:37;;;;;;;9.68;8.75;;;;;;;;;;4982003;28;20173;-84
2020/12/31 00:30:08;;;;;;;11.77;10.40;;;;;;;;;;4981981;28;20170;-83
2020/12/31 00:32:34;;;;;;;12.45;10.05;;;;;;;;;;4981952;28;20290;-82
2020/12/31 00:35:01;;;;;;;11.77;10.57;;;;;;;;;;4980582;28;20180;-83
2020/12/31 00:37:32;;;;;;;11.02;9.93;;;;;;;;;;4981992;28;20180;-83
2020/12/31 00:39:58;;;;;;;11.68;9.98;;;;;;;;;;4981078;28;20611;-83
2020/12/31 00:42:24;;;;;;;13.77;10.10;;;;;;;;;;4981734;28;20284;-83
2020/12/31 00:44:50;;;;;;;12.60;10.50;;;;;;;;;;4980084;28;20183;-83
2020/12/31 00:47:16;;;;;;;11.05;9.35;;;;;;;;;;4981477;28;20166;-83
2020/12/31 00:49:43;;;;;;;12.82;10.20;;;;;;;;;;4979576;28;20201;-83
2020/12/31 00:52:09;;;;;;;21.55;11.88;;;;;;;;;;4979996;28;20216;-83
2020/12/31 00:54:37;;;;;;;13.25;9.75;;;;;;;;;;4979723;28;20174;-82
2020/12/31 00:57:03;;;;;;;11.45;10.25;;;;;;;;;;4980074;28;20186;-82
2020/12/31 00:59:30;;;;;;;11.68;10.30;;;;;;;;;;4979124;28;20609;-82
2020/12/31 01:01:56;;;;;;;14.13;11.63;;;;;;;;;;4982876;28;20253;-82
2020/12/31 01:04:22;;;;;;;14.35;12.88;;;;;;;;;;4985064;28;20168;-82
2020/12/31 01:06:48;;;;;;;12.82;9.80;;;;;;;;;;4983214;28;20176;-83
2020/12/31 01:09:14;;;;;;;18.58;16.67;;;;;;;;;;4983299;28;20715;-82
2020/12/31 01:11:41;;;;;;;19.95;12.85;;;;;;;;;;4984414;28;20216;-82
2020/12/31 01:14:07;;;;;;;14.45;12.68;;;;;;;;;;4984333;28;20173;-82
2020/12/31 01:16:34;;;;;;;11.55;10.25;;;;;;;;;;4984355;28;20169;-82
2020/12/31 01:19:00;;;;;;;15.68;11.63;;;;;;;;;;4985098;28;20171;-83
2020/12/31 01:21:26;;;;;;;13.27;11.98;;;;;;;;;;4984229;28;20209;-83
2020/12/31 01:23:52;;;;;;;13.00;11.52;;;;;;;;;;4987988;28;20661;-83
2020/12/31 01:26:29;;;;;;;11.63;10.50;;;;;;;;;;4990780;28;20173;-82
2020/12/31 01:28:55;;;;;;;12.80;11.50;;;;;;;;;;5001802;28;20154;-82
2020/12/31 01:31:21;;;;;;;13.02;11.75;;;;;;;;;;5001795;28;20177;-82
2020/12/31 01:33:47;;;;;;;13.18;11.23;;;;;;;;;;5000691;28;20209;-83
2020/12/31 01:36:13;;;;;;;11.93;10.82;;;;;;;;;;4984144;28;20660;-84
2020/12/31 01:38:40;;;;;;;12.02;11.02;;;;;;;;;;4983437;28;20174;-83
2020/12/31 01:41:06;;;;;;;9.70;8.90;;;;;;;;;;4981549;28;20212;-83
2020/12/31 01:43:32;;;;;;;12.10;10.80;;;;;;;;;;4983599;28;20174;-84
2020/12/31 01:45:58;;;;;;;9.57;7.95;;;;;;;;;;4982369;28;20167;-83
2020/12/31 01:48:24;;;;;;;8.38;7.68;;;;;;;;;;4981070;28;20173;-81
2020/12/31 01:50:50;;;;;;;8.75;7.85;;;;;;;;;;4982974;28;20644;-82
2020/12/31 01:53:17;;;;;;;9.60;8.52;;;;;;;;;;4983004;28;20199;-82
2020/12/31 01:55:43;;;;;;;11.00;9.75;;;;;;;;;;4983597;28;20182;-82
2020/12/31 01:58:09;;;;;;;10.20;9.30;;;;;;;;;;4983009;28;20184;-81
2020/12/31 02:00:35;;;;;;;8.65;7.85;;;;;;;;;;4983147;28;20204;-81
2020/12/31 02:03:01;;;;;;;9.60;8.70;;;;;;;;;;4981553;28;20169;-82
2020/12/31 02:05:28;;;;;;;11.68;9.60;;;;;;;;;;4983311;28;20173;-82
2020/12/31 02:07:54;;;;;;;9.10;8.40;;;;;;;;;;4982676;28;20170;-82
2020/12/31 02:10:22;;;;;;;9.38;8.48;;;;;;;;;;4982812;28;20170;-82
2020/12/31 02:12:48;;;;;;;9.70;8.80;;;;;;;;;;4980586;28;20208;-80
2020/12/31 02:15:14;;;;;;;9.77;8.95;;;;;;;;;;4979703;28;20547;-79
2020/12/31 02:17:41;;;;;;;10.43;9.30;;;;;;;;;;4979005;28;20170;-79
2020/12/31 02:20:07;;;;;;;10.38;9.32;;;;;;;;;;4978216;28;20545;-80
2020/12/31 02:22:33;;;;;;;9.95;8.95;;;;;;;;;;4979323;28;20193;-80
2020/12/31 02:24:59;;;;;;;9.13;8.43;;;;;;;;;;4979784;28;20683;-81
2020/12/31 02:27:25;;;;;;;10.07;8.65;;;;;;;;;;4979347;28;20162;-80
2020/12/31 02:29:53;;;;;;;9.63;8.68;;;;;;;;;;4979551;28;20755;-80
2020/12/31 02:32:19;;;;;;;9.63;8.70;;;;;;;;;;4979111;28;20377;-80
2020/12/31 02:34:45;;;;;;;8.93;8.02;;;;;;;;;;4979399;28;20177;-80
2020/12/31 02:37:11;;;;;;;10.75;9.02;;;;;;;;;;4979180;28;20234;-79
2020/12/31 02:39:37;;;;;;;9.27;8.40;;;;;;;;;;4981812;28;20185;-80
2020/12/31 02:42:06;;;;;;;9.18;8.27;;;;;;;;;;4979762;28;20177;-79
2020/12/31 02:44:32;;;;;;;11.65;9.05;;;;;;;;;;4978886;28;20180;-80
2020/12/31 02:46:58;;;;;;;9.32;8.52;;;;;;;;;;4978716;28;20269;-80
2020/12/31 02:49:27;;;;;;;8.80;7.90;;;;;;;;;;4979562;28;20217;-80
2020/12/31 02:51:53;;;;;;;10.05;9.18;;;;;;;;;;4979399;28;20675;-80
2020/12/31 02:54:19;;;;;;;9.15;8.30;;;;;;;;;;4979805;28;20223;-80
2020/12/31 02:56:45;;;;;;;10.20;9.10;;;;;;;;;;4980017;28;20628;-80
2020/12/31 02:59:12;;;;;;;9.80;8.80;;;;;;;;;;4980476;28;20176;-79
2020/12/31 03:01:38;;;;;;;9.20;8.30;;;;;;;;;;4980082;28;20259;-80
2020/12/31 03:04:04;;;;;;;8.90;8.10;;;;;;;;;;4988572;28;20164;-80
2020/12/31 03:06:30;;;;;;;11.63;10.52;;;;;;;;;;4999752;28;20181;-80
2020/12/31 03:08:56;;;;;;;9.50;8.57;;;;;;;;;;4998795;28;20185;-79
2020/12/31 03:11:24;;;;;;;8.85;8.15;;;;;;;;;;4998112;28;20205;-79
2020/12/31 03:13:51;;;;;;;11.70;8.90;;;;;;;;;;4981773;28;20201;-79
2020/12/31 03:16:17;;;;;;;10.95;9.68;;;;;;;;;;4979726;28;20518;-80
2020/12/31 03:18:43;;;;;;;9.50;8.60;;;;;;;;;;4980391;28;20177;-79
2020/12/31 03:21:09;;;;;;;10.05;9.00;;;;;;;;;;4981861;28;20735;-78
2020/12/31 03:23:35;;;;;;;9.38;8.38;;;;;;;;;;4979031;28;20174;-79
2020/12/31 03:26:01;;;;;;;11.20;10.05;;;;;;;;;;4978778;28;20165;-79
2020/12/31 03:28:28;;;;;;;10.63;9.52;;;;;;;;;;4978404;28;20255;-79
2020/12/31 03:30:54;;;;;;;9.55;8.65;;;;;;;;;;4978379;28;20263;-80
2020/12/31 03:33:20;;;;;;;9.82;8.77;;;;;;;;;;4978830;28;20173;-79
2020/12/31 03:35:48;;;;;;;9.88;8.70;;;;;;;;;;4977858;28;20170;-79
2020/12/31 03:38:15;;;;;;;10.55;9.63;;;;;;;;;;4978670;28;20171;-79
2020/12/31 03:40:41;;;;;;;11.55;10.35;;;;;;;;;;4978241;28;20189;-81
2020/12/31 03:43:08;;;;;;;8.18;7.38;;;;;;;;;;4978795;28;20170;-80
2020/12/31 03:45:34;;;;;;;10.00;9.07;;;;;;;;;;4978908;28;20162;-80
2020/12/31 03:48:00;;;;;;;9.90;8.63;;;;;;;;;;4978066;28;20260;-81
2020/12/31 03:50:27;;;;;;;12.68;9.75;;;;;;;;;;4978169;28;20231;-80
2020/12/31 03:52:53;;;;;;;10.02;8.88;;;;;;;;;;4977933;28;20260;-80
2020/12/31 03:55:19;;;;;;;9.80;8.82;;;;;;;;;;4978157;28;20177;-81
2020/12/31 03:57:45;;;;;;;10.75;9.65;;;;;;;;;;4976843;28;20519;-81
2020/12/31 04:00:12;;;;;;;10.27;9.10;;;;;;;;;;4977642;28;20240;-81
2020/12/31 04:02:39;;;;;;;9.75;8.75;;;;;;;;;;4977878;28;20324;-80
2020/12/31 04:05:06;;;;;;;11.18;10.13;;;;;;;;;;4977629;28;20193;-80
2020/12/31 04:07:32;;;;;;;12.88;9.98;;;;;;;;;;4977980;28;20169;-80
2020/12/31 04:09:58;;;;;;;11.65;10.00;;;;;;;;;;4977526;28;20200;-80
2020/12/31 04:12:24;;;;;;;11.18;10.05;;;;;;;;;;4977333;28;20208;-80
2020/12/31 04:14:50;;;;;;;11.88;10.75;;;;;;;;;;4977831;28;20228;-81
2020/12/31 04:17:16;;;;;;;13.93;9.63;;;;;;;;;;4976869;28;20173;-80
2020/12/31 04:19:44;;;;;;;10.68;9.60;;;;;;;;;;4978309;28;20236;-80
2020/12/31 04:22:13;;;;;;;11.65;10.02;;;;;;;;;;4978379;28;20707;-80
2020/12/31 04:24:40;;;;;;;11.20;10.02;;;;;;;;;;4978988;28;20174;-80
2020/12/31 04:27:06;;;;;;;10.65;9.65;;;;;;;;;;4978427;28;20169;-79
2020/12/31 04:29:32;;;;;;;13.55;11.10;;;;;;;;;;4983110;28;20285;-78
2020/12/31 04:31:58;;;;;;;11.50;10.38;;;;;;;;;;4983887;28;20190;-79
2020/12/31 04:34:24;;;;;;;13.75;11.20;;;;;;;;;;4984077;28;20172;-79
2020/12/31 04:36:50;;;;;;;12.18;11.02;;;;;;;;;;4986082;28;20173;-79
2020/12/31 04:39:19;;;;;;;12.48;11.15;;;;;;;;;;4987602;28;20228;-79
2020/12/31 04:41:45;;;;;;;10.73;9.73;;;;;;;;;;4992959;28;20204;-79
2020/12/31 04:44:13;;;;;;;16.33;11.85;;;;;;;;;;5002586;28;20185;-81
2020/12/31 04:46:40;;;;;;;12.63;11.32;;;;;;;;;;5002740;28;20173;-81
2020/12/31 04:49:10;;;;;;;11.30;9.95;;;;;;;;;;5001872;28;20165;-77
2020/12/31 04:51:37;;;;;;;12.43;11.15;;;;;;;;;;4986762;28;20259;-78
2020/12/31 04:54:07;;;;;;;10.93;9.93;;;;;;;;;;4986378;28;20165;-77
2020/12/31 04:56:37;;;;;;;11.77;10.70;;;;;;;;;;4984379;28;20184;-78
2020/12/31 04:59:03;;;;;;;15.35;11.85;;;;;;;;;;4985473;28;20228;-77
2020/12/31 05:01:30;;;;;;;11.30;9.93;;;;;;;;;;4985386;28;20576;-79
2020/12/31 05:03:56;;;;;;;11.45;10.38;;;;;;;;;;4985731;28;20179;-78
2020/12/31 05:06:23;;;;;;;10.85;9.75;;;;;;;;;;4986435;28;20182;-78
2020/12/31 05:08:50;;;;;;;11.20;10.00;;;;;;;;;;4984939;28;20184;-78
2020/12/31 05:11:16;;;;;;;13.65;10.50;;;;;;;;;;4983388;28;20202;-77
2020/12/31 05:13:46;;;;;;;10.02;9.02;;;;;;;;;;4983756;28;20176;-80
2020/12/31 05:16:13;;;;;;;12.52;11.18;;;;;;;;;;4981406;28;20201;-80
2020/12/31 05:18:39;;;;;;;13.98;9.80;;;;;;;;;;4978814;28;20256;-79
2020/12/31 05:21:15;;;;;;;12.80;10.40;;;;;;;;;;4983379;28;20197;-78
2020/12/31 05:23:44;;;;;;;13.02;10.48;;;;;;;;;;4983700;28;20177;-79
2020/12/31 05:26:10;;;;;;;11.15;10.02;;;;;;;;;;4984567;28;20232;-78
2020/12/31 05:28:37;;;;;;;10.55;9.30;;;;;;;;;;4987305;28;20188;-78
2020/12/31 05:31:13;;;;;;;12.23;10.35;;;;;;;;;;4986327;28;20730;-79
2020/12/31 05:33:40;;;;;;;13.80;10.90;;;;;;;;;;4981198;28;20181;-79
2020/12/31 05:36:16;;;;;;;12.65;10.57;;;;;;;;;;4980153;28;20177;-79
2020/12/31 05:39:03;;;;;;;10.75;9.65;;;;;;;;;;4979602;28;20200;-80
2020/12/31 05:41:36;;;;;;;10.85;9.75;;;;;;;;;;4979352;28;20213;-79
2020/12/31 05:44:07;;;;;;;10.43;8.85;;;;;;;;;;4980667;28;20176;-79
2020/12/31 05:46:37;;;;;;;10.95;9.10;;;;;;;;;;4980754;28;20162;-79
2020/12/31 05:49:05;;;;;;;13.25;11.85;;;;;;;;;;4980916;28;20166;-79
2020/12/31 05:51:32;;;;;;;11.82;10.63;;;;;;;;;;4980677;28;20197;-79
2020/12/31 05:54:08;;;;;;;11.80;10.65;;;;;;;;;;4980334;28;20173;-79
2020/12/31 05:56:34;;;;;;;12.13;10.80;;;;;;;;;;4981234;28;20166;-79
2020/12/31 05:59:24;;;;;;;11.07;10.00;;;;;;;;;;4979276;28;20172;-80
2020/12/31 06:01:57;;;;;;;12.00;10.80;;;;;;;;;;4972256;28;20672;-79
2020/12/31 06:04:29;;;;;;;11.93;10.32;;;;;;;;;;4979457;28;20573;-80
2020/12/31 06:07:03;;;;;;;14.50;10.82;;;;;;;;;;4978866;28;20644;-79
2020/12/31 06:09:31;;;;;;;10.60;9.30;;;;;;;;;;4980218;28;20185;-78
2020/12/31 06:11:58;;;;;;;10.73;9.63;;;;;;;;;;4978809;28;20228;-78
2020/12/31 06:14:26;;;;;;;11.30;10.23;;;;;;;;;;4978745;28;20200;-80
2020/12/31 06:16:55;;;;;;;12.65;11.35;;;;;;;;;;4980068;28;20711;-79
2020/12/31 06:19:29;;;;;;;13.25;10.85;;;;;;;;;;4986163;28;20172;-81
2020/12/31 06:22:03;;;;;;;13.68;10.88;;;;;;;;;;4999229;28;20182;-81
2020/12/31 06:24:42;;;;;;;12.82;11.63;;;;;;;;;;5000510;28;20164;-80
2020/12/31 06:27:10;;;;;;;12.55;11.30;;;;;;;;;;4997928;28;20192;-80
2020/12/31 06:29:44;;;;;;;15.73;12.05;;;;;;;;;;4980194;28;20304;-80
2020/12/31 06:32:30;;;;;;;13.00;11.27;;;;;;;;;;4979518;28;20653;-79
2020/12/31 06:35:16;;;;;;;13.38;11.32;;;;;;;;;;4979136;28;20165;-80
2020/12/31 06:37:55;;;;;;;13.00;11.73;;;;;;;;;;4979106;28;20260;-80
2020/12/31 06:40:29;;;;;;;12.00;10.77;;;;;;;;;;4981045;28;20189;-81
2020/12/31 06:43:09;;;;;;;13.20;11.80;;;;;;;;;;4979920;28;20224;-80
2020/12/31 06:45:43;;;;;;;11.90;10.68;;;;;;;;;;4980184;28;20162;-81
2020/12/31 06:48:27;;;;;;;13.73;12.38;;;;;;;;;;4979562;28;20223;-81
2020/12/31 06:50:59;;;;;;;14.30;12.80;;;;;;;;;;4979514;28;20552;-81
2020/12/31 06:53:32;;;;;;;14.75;11.77;;;;;;;;;;4979159;28;20173;-80
2020/12/31 06:55:59;;;;;;;12.05;10.85;;;;;;;;;;4980100;28;20174;-80
2020/12/31 06:58:25;;;;;;;11.77;10.63;;;;;;;;;;4979364;28;20177;-81
2020/12/31 07:00:52;;;;;;;16.80;12.23;;;;;;;;;;4977596;28;20209;-81
2020/12/31 07:03:37;;;;;;;11.88;10.77;;;;;;;;;;4979867;28;20341;-80
2020/12/31 07:06:28;;;;;;;12.02;10.82;;;;;;;;;;4978620;28;20193;-79
2020/12/31 07:08:55;;;;;;;13.90;12.40;;;;;;;;;;4978435;28;20154;-81
2020/12/31 07:11:34;;;;;;;12.70;10.80;;;;;;;;;;4980945;28;20585;-81
2020/12/31 07:14:01;;;;;;;15.00;11.48;;;;;;;;;;4981601;28;20548;-81
2020/12/31 07:16:46;;;;;;;10.82;9.73;;;;;;;;;;4979846;28;20173;-81
2020/12/31 07:19:13;;;;;;;13.27;11.93;;;;;;;;;;4978717;28;20233;-80
2020/12/31 07:21:39;;;;;;;12.50;11.20;;;;;;;;;;4979344;28;20201;-80
2020/12/31 07:24:22;;;;;;;10.57;9.15;;;;;;;;;;4980157;28;20173;-79
2020/12/31 07:26:54;;;;;;;12.10;10.77;;;;;;;;;;4979849;28;20181;-80
2020/12/31 07:29:24;;;;;;;12.98;11.68;;;;;;;;;;4980256;28;20200;-81
2020/12/31 07:31:51;;;;;;;13.35;11.43;;;;;;;;;;4982443;28;20209;-80
2020/12/31 07:34:21;;;;;;;11.52;10.30;;;;;;;;;;4981240;28;20177;-79
2020/12/31 07:37:07;;;;;;;12.13;10.82;;;;;;;;;;4979837;28;20200;-79
2020/12/31 07:39:36;;;;;;;12.35;10.13;;;;;;;;;;4978603;28;20161;-81
2020/12/31 07:42:12;;;;;;;14.20;12.15;;;;;;;;;;4978706;28;20193;-80
2020/12/31 07:44:52;;;;;;;14.35;12.02;;;;;;;;;;4977269;28;20181;-81
2020/12/31 07:47:19;;;;;;;13.05;11.77;;;;;;;;;;4963822;28;20208;-80
2020/12/31 07:49:49;;;;;;;14.27;12.75;;;;;;;;;;4978133;28;20165;-80
2020/12/31 07:52:15;;;;;;;14.18;11.52;;;;;;;;;;4978245;28;20601;-80
2020/12/31 07:54:41;;;;;;;10.30;9.30;;;;;;;;;;4977741;28;20169;-81
2020/12/31 07:57:11;;;;;;;12.68;10.80;;;;;;;;;;4985965;28;20225;-79
2020/12/31 07:59:41;;;;;;;12.77;11.10;;;;;;;;;;4998496;28;20195;-80
2020/12/31 08:02:07;;;;;;;10.57;9.55;;;;;;;;;;4998200;28;20198;-80
2020/12/31 08:04:34;;;;;;;11.85;10.75;;;;;;;;;;4997697;28;20157;-83
2020/12/31 08:07:02;;;;;;;11.98;10.05;;;;;;;;;;4980963;28;20169;-80
2020/12/31 08:09:28;;;;;;;15.77;13.70;;;;;;;;;;4979484;28;20731;-79
2020/12/31 08:11:54;;;;;;;14.10;12.68;;;;;;;;;;4983840;28;20212;-80
2020/12/31 08:14:21;;;;;;;11.30;9.73;;;;;;;;;;4982868;28;20212;-77
2020/12/31 08:17:00;;;;;;;11.38;10.25;;;;;;;;;;4982908;28;20184;-80
2020/12/31 08:19:26;;;;;;;15.15;12.48;;;;;;;;;;4982817;28;20193;-80
2020/12/31 08:21:54;;;;;;;8.70;7.90;;;;;;;;;;4985026;28;20205;-79
2020/12/31 08:24:22;;;;;;;9.13;8.23;;;;;;;;;;4985121;28;20173;-80
2020/12/31 08:26:57;;;;;;;10.30;9.35;;;;;;;;;;4985191;28;20346;-79
2020/12/31 08:29:27;;;;;;;10.02;8.70;;;;;;;;;;4985512;28;20204;-80
2020/12/31 08:31:54;;;;;;;10.68;9.65;;;;;;;;;;4986361;28;20213;-80
2020/12/31 08:34:26;;;;;;;9.20;8.30;;;;;;;;;;4984995;28;20181;-79
2020/12/31 08:36:53;;;;;;;10.60;8.05;;;;;;;;;;4985578;28;20252;-79
2020/12/31 08:39:20;;;;;;;8.80;7.97;;;;;;;;;;4986198;28;20221;-79
2020/12/31 08:41:59;;;;;;;8.60;7.72;;;;;;;;;;4985162;28;20224;-79
2020/12/31 08:44:26;;;;;;;7.63;6.93;;;;;;;;;;4985953;28;20587;-79
2020/12/31 08:46:52;;;;;;;8.40;7.60;;;;;;;;;;4982353;28;20177;-78
2020/12/31 08:49:25;;;;;;;8.52;7.82;;;;;;;;;;4984812;28;20173;-79
2020/12/31 08:51:52;;;;;;;8.63;7.75;;;;;;;;;;4984966;28;20274;-80
2020/12/31 08:54:28;;;;;;;8.13;7.43;;;;;;;;;;4985067;28;20186;-80
2020/12/31 08:56:54;;;;;;;8.38;7.57;;;;;;;;;;4985027;28;20154;-79
2020/12/31 08:59:20;;;;;;;7.22;6.63;;;;;;;;;;4985670;28;20252;-78
2020/12/31 09:01:47;;;;;;;9.13;8.02;;;;;;;;;;4984488;28;20733;-80
2020/12/31 09:04:16;;;;;;;7.28;6.68;;;;;;;;;;4985030;28;20169;-79
2020/12/31 09:06:43;;;;;;;7.55;6.90;;;;;;;;;;4984002;28;20205;-79
2020/12/31 09:09:38;;;;;;;9.65;7.38;;;;;;;;;;4982806;28;20171;-79
2020/12/31 09:12:04;;;;;;;8.18;7.30;;;;;;;;;;4970735;28;20713;-79
2020/12/31 09:14:31;;;;;;;8.02;7.22;;;;;;;;;;4982362;28;20617;-80
2020/12/31 09:16:58;;;;;;;9.68;8.80;;;;;;;;;;4983317;28;20196;-80
2020/12/31 09:19:24;;;;;;;12.93;9.15;;;;;;;;;;4980285;28;20180;-81
2020/12/31 09:21:50;;;;;;;11.35;9.43;;;;;;;;;;4978897;28;20213;-80
2020/12/31 09:24:20;;;;;;;8.35;7.35;;;;;;;;;;4980325;28;20161;-80
2020/12/31 09:26:56;;;;;;;8.38;7.15;;;;;;;;;;4981705;28;20167;-80
2020/12/31 09:29:23;;;;;;;9.65;8.82;;;;;;;;;;4981054;28;20260;-80
2020/12/31 09:31:49;;;;;;;7.32;6.60;;;;;;;;;;4981657;28;20197;-80
2020/12/31 09:34:15;;;;;;;6.85;6.15;;;;;;;;;;4982552;28;20216;-80
2020/12/31 09:36:41;;;;;;;10.48;6.70;;;;;;;;;;4999125;28;20162;-81
2020/12/31 09:39:08;;;;;;;15.63;7.78;;;;;;;;;;5000816;28;20188;-82
2020/12/31 09:41:34;;;;;;;9.05;7.20;;;;;;;;;;5000668;28;20197;-81
2020/12/31 09:44:00;;;;;;;11.05;9.95;;;;;;;;;;4989660;28;20640;-80
2020/12/31 09:46:26;;;;;;;8.73;7.82;;;;;;;;;;4981975;28;20244;-80
2020/12/31 09:48:53;;;;;;;8.82;7.72;;;;;;;;;;4981704;28;20181;-79
2020/12/31 09:51:19;;;;;;;8.07;7.28;;;;;;;;;;4980100;28;20197;-80
2020/12/31 09:53:46;;;;;;;9.70;7.13;;;;;;;;;;4982294;28;20173;-80
2020/12/31 09:56:12;;;;;;;7.65;6.95;;;;;;;;;;4981527;28;20427;-80
2020/12/31 09:58:41;;;;;;;8.00;7.35;;;;;;;;;;4982302;28;20681;-80
2020/12/31 10:01:07;;;;;;;9.50;8.50;;;;;;;;;;4980560;28;20217;-79
2020/12/31 10:03:33;;;;;;;7.07;6.38;;;;;;;;;;4980810;28;20249;-80
2020/12/31 10:06:00;;;;;;;8.10;7.50;;;;;;;;;;4982390;28;20158;-79
2020/12/31 10:08:26;;;;;;;8.87;8.17;;;;;;;;;;4983064;28;20231;-79
2020/12/31 10:10:52;;;;;;;8.63;7.87;;;;;;;;;;4981960;28;20432;-80
2020/12/31 10:13:18;;;;;;;8.50;7.10;;;;;;;;;;4984306;28;20428;-79
2020/12/31 10:15:44;;;;;;;7.70;7.00;;;;;;;;;;4985336;28;20184;-79
2020/12/31 10:18:10;;;;;;;7.60;6.90;;;;;;;;;;4984958;28;20165;-78
2020/12/31 10:20:37;;;;;;;8.05;7.28;;;;;;;;;;4984608;28;20452;-79
2020/12/31 10:23:04;;;;;;;6.82;6.22;;;;;;;;;;4982586;28;20522;-79
2020/12/31 10:25:33;;;;;;;10.90;7.23;;;;;;;;;;4983781;28;20164;-79
2020/12/31 10:27:59;;;;;;;8.87;6.37;;;;;;;;;;4984510;28;20408;-79
2020/12/31 10:30:25;;;;;;;8.00;7.30;;;;;;;;;;4986768;28;20436;-80
2020/12/31 10:32:51;;;;;;;9.20;8.30;;;;;;;;;;4986270;28;20427;-81
2020/12/31 10:35:17;;;;;;;8.30;7.53;;;;;;;;;;4986899;28;20918;-80
2020/12/31 10:37:43;;;;;;;6.00;5.40;;;;;;;;;;4994462;28;20181;-80
2020/12/31 10:40:10;;;;;;;6.82;6.22;;;;;;;;;;4986259;28;20464;-79
2020/12/31 10:42:36;;;;;;;8.40;7.57;;;;;;;;;;4987485;28;20215;-79
2020/12/31 10:45:02;;;;;;;6.68;6.07;;;;;;;;;;4990659;28;20471;-81
2020/12/31 10:47:28;;;;;;;11.25;9.23;;;;;;;;;;4990115;28;20169;-81
2020/12/31 10:49:54;;;;;;;7.38;6.22;;;;;;;;;;4987918;28;20173;-80
2020/12/31 10:52:31;;;;;;;6.78;6.15;;;;;;;;;;4983369;28;20245;-81
2020/12/31 10:54:59;;;;;;;7.37;6.67;;;;;;;;;;4979648;28;20174;-81
2020/12/31 10:57:25;;;;;;;7.50;6.87;;;;;;;;;;4978837;28;20405;-80
2020/12/31 10:59:52;;;;;;;7.53;6.20;;;;;;;;;;4979161;28;20452;-81
2020/12/31 11:02:18;;;;;;;9.53;7.10;;;;;;;;;;4980453;28;20544;-80
2020/12/31 11:04:44;;;;;;;8.33;7.30;;;;;;;;;;4981136;28;20421;-81
2020/12/31 11:07:10;;;;;;;7.30;6.70;;;;;;;;;;4980512;28;20500;-80
2020/12/31 11:09:36;;;;;;;8.30;7.60;;;;;;;;;;4980671;28;20409;-81
2020/12/31 11:12:03;;;;;;;8.47;7.53;;;;;;;;;;4982477;28;20204;-79
2020/12/31 11:14:29;;;;;;;7.93;7.13;;;;;;;;;;4995724;28;20432;-79
2020/12/31 11:16:55;;;;;;;6.83;6.23;;;;;;;;;;4995573;28;20424;-81
2020/12/31 11:19:21;;;;;;;6.77;6.27;;;;;;;;;;4992748;28;20424;-81
2020/12/31 11:21:50;;;;;;;6.67;6.00;;;;;;;;;;4982963;28;20463;-82
2020/12/31 11:24:25;;;;;;;7.47;6.77;;;;;;;;;;4982140;28;20492;-82
2020/12/31 11:27:14;;;;;;;8.43;7.63;;;;;;;;;;4976428;28;20422;-81
2020/12/31 11:29:40;;;;;;;8.13;7.30;;;;;;;;;;4980215;28;20739;-81
2020/12/31 11:32:09;;;;;;;7.73;7.03;;;;;;;;;;4982100;28;20432;-81
2020/12/31 11:34:36;;;;;;;11.63;9.43;;;;;;;;;;4979929;28;20405;-81
2020/12/31 11:37:02;;;;;;;7.80;7.20;;;;;;;;;;4978774;28;20805;-82
2020/12/31 11:39:28;;;;;;;7.33;6.67;;;;;;;;;;4962627;28;20567;-81
2020/12/31 11:42:01;;;;;;;7.90;6.83;;;;;;;;;;4963139;28;20476;-82
2020/12/31 11:44:27;;;;;;;10.13;7.70;;;;;;;;;;4979803;28;20463;-83
2020/12/31 11:46:58;;;;;;;6.40;5.80;;;;;;;;;;4977848;28;20475;-82
2020/12/31 11:49:24;;;;;;;6.43;5.83;;;;;;;;;;4979788;28;20519;-83
2020/12/31 11:51:55;;;;;;;11.73;9.77;;;;;;;;;;4979565;28;20439;-83
2020/12/31 11:54:24;;;;;;;6.80;6.30;;;;;;;;;;4980348;28;20398;-82
2020/12/31 11:56:50;;;;;;;7.97;7.15;;;;;;;;;;4979356;28;20937;-82
2020/12/31 11:59:21;;;;;;;9.38;8.30;;;;;;;;;;4979159;28;20177;-83
2020/12/31 12:02:00;;;;;;;8.70;8.00;;;;;;;;;;4981709;28;20256;-82
2020/12/31 12:04:26;;;;;;;8.63;7.80;;;;;;;;;;4962587;28;20431;-82
2020/12/31 12:06:54;;;;;;;7.50;6.80;;;;;;;;;;4979717;28;20161;-82
2020/12/31 12:09:23;;;;;;;10.47;9.47;;;;;;;;;;4980072;28;20172;-82
2020/12/31 12:11:49;;;;;;;10.60;9.73;;;;;;;;;;4979518;28;20471;-83
2020/12/31 12:14:16;;;;;;;14.18;11.00;;;;;;;;;;4980520;28;20436;-82
2020/12/31 12:16:42;;;;;;;10.33;9.20;;;;;;;;;;4981471;28;20552;-82
2020/12/31 12:19:12;;;;;;;9.53;8.43;;;;;;;;;;4962101;28;20443;-83
2020/12/31 12:21:38;;;;;;;10.00;9.20;;;;;;;;;;4980266;28;20491;-83
2020/12/31 12:24:05;;;;;;;7.67;6.97;;;;;;;;;;4978766;28;20409;-81
2020/12/31 12:26:38;;;;;;;8.05;7.18;;;;;;;;;;4979080;28;20401;-82
2020/12/31 12:29:08;;;;;;;9.57;7.80;;;;;;;;;;4980067;28;20171;-84
2020/12/31 12:31:35;;;;;;;7.00;6.25;;;;;;;;;;4979137;28;20456;-83
2020/12/31 12:34:02;;;;;;;14.07;7.77;;;;;;;;;;4978865;28;20518;-82
2020/12/31 12:36:28;;;;;;;9.55;8.68;;;;;;;;;;4980690;28;20416;-81
2020/12/31 12:38:58;;;;;;;9.70;8.37;;;;;;;;;;4979476;28;20201;-81
2020/12/31 12:41:24;;;;;;;9.93;9.03;;;;;;;;;;4978104;28;21013;-81
2020/12/31 12:43:51;;;;;;;10.60;9.20;;;;;;;;;;4978090;28;21002;-84
2020/12/31 12:46:17;;;;;;;7.13;6.47;;;;;;;;;;4977633;28;20181;-81
2020/12/31 12:48:43;;;;;;;8.63;7.93;;;;;;;;;;4977910;28;20409;-81
2020/12/31 12:51:10;;;;;;;9.17;8.33;;;;;;;;;;4988648;28;20178;-82
2020/12/31 12:53:36;;;;;;;10.07;8.10;;;;;;;;;;4980369;28;20460;-84
2020/12/31 12:56:03;;;;;;;8.00;7.30;;;;;;;;;;4998057;28;20423;-82
2020/12/31 12:58:30;;;;;;;9.27;8.40;;;;;;;;;;4982955;28;20459;-82
2020/12/31 13:00:56;;;;;;;7.78;7.03;;;;;;;;;;4983908;28;20452;-83
2020/12/31 13:03:22;;;;;;;6.60;5.88;;;;;;;;;;4982814;28;20162;-82
2020/12/31 13:05:49;;;;;;;8.95;7.88;;;;;;;;;;4983841;28;20173;-83
2020/12/31 13:08:15;;;;;;;9.40;8.63;;;;;;;;;;4984019;28;20162;-80
2020/12/31 13:10:45;;;;;;;8.20;7.40;;;;;;;;;;4982665;28;20204;-82
2020/12/31 13:13:12;;;;;;;8.20;6.67;;;;;;;;;;4983008;28;20528;-82
2020/12/31 13:15:41;;;;;;;8.40;7.60;;;;;;;;;;4982564;28;20435;-81
2020/12/31 13:18:08;;;;;;;7.88;7.18;;;;;;;;;;4982495;28;20427;-81
2020/12/31 13:20:34;;;;;;;9.77;8.80;;;;;;;;;;4981886;28;20228;-82
2020/12/31 13:23:03;;;;;;;7.93;7.27;;;;;;;;;;4983247;28;20955;-81
2020/12/31 13:25:29;;;;;;;7.87;6.70;;;;;;;;;;4982663;28;20414;-81
2020/12/31 13:27:55;;;;;;;7.53;6.93;;;;;;;;;;4983089;28;20421;-81
2020/12/31 13:30:21;;;;;;;8.37;7.50;;;;;;;;;;4981842;28;20416;-81
2020/12/31 13:32:47;;;;;;;7.18;6.47;;;;;;;;;;4982136;28;20472;-82
2020/12/31 13:35:14;;;;;;;7.57;6.97;;;;;;;;;;4981204;28;20590;-81
2020/12/31 13:37:42;;;;;;;7.83;7.13;;;;;;;;;;4983144;28;20245;-81
2020/12/31 13:40:09;;;;;;;6.70;6.00;;;;;;;;;;4982080;28;20527;-81
2020/12/31 13:42:35;;;;;;;7.17;6.40;;;;;;;;;;4964619;28;20444;-81
2020/12/31 13:45:03;;;;;;;9.40;6.40;;;;;;;;;;4981914;28;20416;-81
2020/12/31 13:47:29;;;;;;;8.20;7.47;;;;;;;;;;4985146;28;20545;-82
2020/12/31 13:49:55;;;;;;;8.50;7.07;;;;;;;;;;4982653;28;20211;-82
2020/12/31 13:52:21;;;;;;;10.02;7.25;;;;;;;;;;4981898;28;20182;-82
2020/12/31 13:54:47;;;;;;;7.70;6.97;;;;;;;;;;4981062;28;20173;-82
2020/12/31 13:57:13;;;;;;;8.02;7.20;;;;;;;;;;4980759;28;20240;-82
2020/12/31 13:59:40;;;;;;;8.95;8.05;;;;;;;;;;4982318;28;20169;-81
2020/12/31 14:02:06;;;;;;;7.88;7.22;;;;;;;;;;4981253;28;20268;-82
2020/12/31 14:04:33;;;;;;;6.95;6.25;;;;;;;;;;4981496;28;20215;-80
2020/12/31 14:06:59;;;;;;;7.63;6.93;;;;;;;;;;4980927;28;20173;-80
2020/12/31 14:09:25;;;;;;;8.23;7.53;;;;;;;;;;4981037;28;20914;-82
2020/12/31 14:11:52;;;;;;;9.13;7.23;;;;;;;;;;5002520;23;20479;-83
2020/12/31 14:14:18;;;;;;;11.27;8.50;;;;;;;;;;5004336;28;20431;-84
2020/12/31 14:16:44;;;;;;;7.28;6.68;;;;;;;;;;4987787;28;20419;-82
2020/12/31 14:19:10;;;;;;;8.05;6.32;;;;;;;;;;5003398;28;20172;-83
2020/12/31 14:21:36;;;;;;;7.97;7.15;;;;;;;;;;5006187;28;20561;-83
2020/12/31 14:24:03;;;;;;;10.03;8.63;;;;;;;;;;5003240;28;20175;-84
2020/12/31 14:26:29;;;;;;;8.30;7.60;;;;;;;;;;5002230;28;20404;-84
2020/12/31 14:28:55;;;;;;;7.18;6.38;;;;;;;;;;4986726;28;20434;-82
2020/12/31 14:31:21;;;;;;;8.23;7.43;;;;;;;;;;5003625;28;20537;-84
2020/12/31 14:33:51;;;;;;;7.65;6.85;;;;;;;;;;4987481;28;20249;-84
2020/12/31 14:36:17;;;;;;;7.15;6.50;;;;;;;;;;5003121;28;20275;-85